sensor_id;sensor_type;location;lat;lon;timestamp;P1;durP1;ratioP1;P2;durP2;ratioP2
34775;SDS011;20989;52.566;13.346;2023-05-10T00:01:32;1.60;;;1.50;;
34775;SDS011;20989;52.566;13.346;2023-05-10T00:04:32;1.25;;;1.25;;
34775;SDS011;20989;52.566;13.346;2023-05-10T00:07:33;1.30;;;1.15;;
34775;SDS011;20989;52.566;13.346;2023-05-10T00:10:34;1.27;;;1.23;;
34775;SDS011;20989;52.566;13.346;2023-05-10T00:13:36;1.25;;;1.15;;
34775;SDS011;20989;52.566;13.346;2023-05-10T00:16:36;0.98;;;0.98;;
34775;SDS011;20989;52.566;13.346;2023-05-10T00:19:37;1.40;;;1.30;;
34775;SDS011;20989;52.566;13.346;2023-05-10T00:22:38;1.08;;;1.08;;
34775;SDS011;20989;52.566;13.346;2023-05-10T00:25:39;1.17;;;1.13;;
34775;SDS011;20989;52.566;13.346;2023-05-10T00:28:39;1.35;;;1.05;;
34775;SDS011;20989;52.566;13.346;2023-05-10T00:31:40;1.25;;;1.23;;
34775;SDS011;20989;52.566;13.346;2023-05-10T00:34:40;1.30;;;1.20;;
34775;SDS011;20989;52.566;13.346;2023-05-10T00:37:41;1.33;;;1.20;;
34775;SDS011;20989;52.566;13.346;2023-05-10T00:40:42;1.65;;;1.08;;
34775;SDS011;20989;52.566;13.346;2023-05-10T00:43:43;1.35;;;1.25;;
34775;SDS011;20989;52.566;13.346;2023-05-10T00:46:43;1.40;;;1.30;;
34775;SDS011;20989;52.566;13.346;2023-05-10T00:49:45;1.55;;;1.45;;
34775;SDS011;20989;52.566;13.346;2023-05-10T00:52:46;1.27;;;1.27;;
34775;SDS011;20989;52.566;13.346;2023-05-10T00:55:46;1.42;;;1.33;;
34775;SDS011;20989;52.566;13.346;2023-05-10T00:58:47;1.08;;;1.08;;
34775;SDS011;20989;52.566;13.346;2023-05-10T01:01:48;1.10;;;1.10;;
34775;SDS011;20989;52.566;13.346;2023-05-10T01:04:49;1.40;;;1.30;;
34775;SDS011;20989;52.566;13.346;2023-05-10T01:07:51;0.90;;;0.90;;
34775;SDS011;20989;52.566;13.346;2023-05-10T01:10:52;1.30;;;1.20;;
34775;SDS011;20989;52.566;13.346;2023-05-10T01:13:55;1.42;;;1.20;;
34775;SDS011;20989;52.566;13.346;2023-05-10T01:16:57;1.40;;;1.30;;
34775;SDS011;20989;52.566;13.346;2023-05-10T01:19:58;1.45;;;1.35;;
34775;SDS011;20989;52.566;13.346;2023-05-10T01:36:45;1.25;;;1.25;;
34775;SDS011;20989;52.566;13.346;2023-05-10T01:40:03;1.33;;;1.23;;
34775;SDS011;20989;52.566;13.346;2023-05-10T01:43:27;1.20;;;1.20;;
34775;SDS011;20989;52.566;13.346;2023-05-10T01:46:33;1.00;;;1.00;;
34775;SDS011;20989;52.566;13.346;2023-05-10T01:49:59;1.20;;;1.10;;
34775;SDS011;20989;52.566;13.346;2023-05-10T01:53:01;1.30;;;1.30;;
34775;SDS011;20989;52.566;13.346;2023-05-10T01:56:04;0.98;;;0.98;;
34775;SDS011;20989;52.566;13.346;2023-05-10T01:59:06;1.20;;;1.20;;
34775;SDS011;20989;52.566;13.346;2023-05-10T02:02:17;1.25;;;1.17;;
34775;SDS011;20989;52.566;13.346;2023-05-10T02:05:20;1.50;;;1.40;;
34775;SDS011;20989;52.566;13.346;2023-05-10T02:08:22;1.08;;;1.08;;
34775;SDS011;20989;52.566;13.346;2023-05-10T02:11:24;1.00;;;1.00;;
34775;SDS011;20989;52.566;13.346;2023-05-10T02:14:25;1.30;;;1.20;;
34775;SDS011;20989;52.566;13.346;2023-05-10T02:17:27;1.30;;;1.20;;
34775;SDS011;20989;52.566;13.346;2023-05-10T02:20:30;1.15;;;1.15;;
34775;SDS011;20989;52.566;13.346;2023-05-10T02:23:32;1.25;;;1.17;;
34775;SDS011;20989;52.566;13.346;2023-05-10T02:26:35;1.30;;;1.20;;
34775;SDS011;20989;52.566;13.346;2023-05-10T02:29:38;1.42;;;0.95;;
34775;SDS011;20989;52.566;13.346;2023-05-10T02:32:39;1.25;;;1.17;;
34775;SDS011;20989;52.566;13.346;2023-05-10T02:35:40;1.50;;;1.40;;
34775;SDS011;20989;52.566;13.346;2023-05-10T02:38:42;1.40;;;1.20;;
34775;SDS011;20989;52.566;13.346;2023-05-10T02:41:44;1.15;;;1.15;;
34775;SDS011;20989;52.566;13.346;2023-05-10T02:44:47;1.98;;;1.50;;
34775;SDS011;20989;52.566;13.346;2023-05-10T02:47:50;1.05;;;1.05;;
34775;SDS011;20989;52.566;13.346;2023-05-10T02:50:51;1.10;;;1.10;;
34775;SDS011;20989;52.566;13.346;2023-05-10T02:53:54;1.35;;;1.15;;
34775;SDS011;20989;52.566;13.346;2023-05-10T02:56:58;1.00;;;1.00;;
34775;SDS011;20989;52.566;13.346;2023-05-10T03:00:01;1.42;;;1.40;;
34775;SDS011;20989;52.566;13.346;2023-05-10T03:03:03;1.40;;;1.30;;
34775;SDS011;20989;52.566;13.346;2023-05-10T03:06:04;1.05;;;1.05;;
34775;SDS011;20989;52.566;13.346;2023-05-10T03:09:04;1.30;;;1.20;;
34775;SDS011;20989;52.566;13.346;2023-05-10T03:12:14;1.05;;;1.05;;
34775;SDS011;20989;52.566;13.346;2023-05-10T03:15:22;1.20;;;1.13;;
34775;SDS011;20989;52.566;13.346;2023-05-10T03:18:44;1.40;;;1.30;;
34775;SDS011;20989;52.566;13.346;2023-05-10T03:21:54;1.15;;;1.15;;
34775;SDS011;20989;52.566;13.346;2023-05-10T03:24:58;0.98;;;0.98;;
34775;SDS011;20989;52.566;13.346;2023-05-10T03:28:04;1.00;;;1.00;;
34775;SDS011;20989;52.566;13.346;2023-05-10T03:31:06;1.00;;;1.00;;
34775;SDS011;20989;52.566;13.346;2023-05-10T03:34:07;1.35;;;1.25;;
34775;SDS011;20989;52.566;13.346;2023-05-10T03:37:08;1.42;;;1.33;;
34775;SDS011;20989;52.566;13.346;2023-05-10T03:40:09;1.17;;;1.17;;
34775;SDS011;20989;52.566;13.346;2023-05-10T03:43:10;0.80;;;0.80;;
34775;SDS011;20989;52.566;13.346;2023-05-10T03:46:10;1.30;;;1.20;;
34775;SDS011;20989;52.566;13.346;2023-05-10T03:49:11;1.55;;;1.45;;
34775;SDS011;20989;52.566;13.346;2023-05-10T03:52:12;1.10;;;1.10;;
34775;SDS011;20989;52.566;13.346;2023-05-10T03:55:13;1.33;;;1.23;;
34775;SDS011;20989;52.566;13.346;2023-05-10T03:58:13;1.00;;;1.00;;
34775;SDS011;20989;52.566;13.346;2023-05-10T04:01:14;1.20;;;1.20;;
34775;SDS011;20989;52.566;13.346;2023-05-10T04:04:15;1.00;;;1.00;;
34775;SDS011;20989;52.566;13.346;2023-05-10T04:07:18;1.20;;;1.20;;
34775;SDS011;20989;52.566;13.346;2023-05-10T04:10:19;0.90;;;0.90;;
34775;SDS011;20989;52.566;13.346;2023-05-10T04:13:20;11.55;;;2.20;;
34775;SDS011;20989;52.566;13.346;2023-05-10T04:16:21;8.63;;;3.40;;
34775;SDS011;20989;52.566;13.346;2023-05-10T04:19:22;7.47;;;3.28;;
34775;SDS011;20989;52.566;13.346;2023-05-10T04:22:23;6.65;;;3.70;;
34775;SDS011;20989;52.566;13.346;2023-05-10T04:25:23;6.07;;;3.85;;
34775;SDS011;20989;52.566;13.346;2023-05-10T04:28:24;6.00;;;3.53;;
34775;SDS011;20989;52.566;13.346;2023-05-10T04:31:24;6.03;;;3.72;;
34775;SDS011;20989;52.566;13.346;2023-05-10T04:34:26;3.95;;;3.58;;
34775;SDS011;20989;52.566;13.346;2023-05-10T04:37:26;3.92;;;3.63;;
34775;SDS011;20989;52.566;13.346;2023-05-10T04:40:28;4.38;;;4.07;;
34775;SDS011;20989;52.566;13.346;2023-05-10T04:43:28;5.90;;;3.72;;
34775;SDS011;20989;52.566;13.346;2023-05-10T04:46:29;6.38;;;3.70;;
34775;SDS011;20989;52.566;13.346;2023-05-10T04:49:29;5.20;;;4.03;;
34775;SDS011;20989;52.566;13.346;2023-05-10T04:52:30;5.38;;;3.75;;
34775;SDS011;20989;52.566;13.346;2023-05-10T04:55:31;10.00;;;4.15;;
34775;SDS011;20989;52.566;13.346;2023-05-10T04:58:31;4.53;;;3.42;;
34775;SDS011;20989;52.566;13.346;2023-05-10T05:01:32;6.35;;;4.35;;
34775;SDS011;20989;52.566;13.346;2023-05-10T05:04:33;6.35;;;3.92;;
34775;SDS011;20989;52.566;13.346;2023-05-10T05:07:34;5.15;;;4.03;;
34775;SDS011;20989;52.566;13.346;2023-05-10T05:10:34;5.50;;;3.45;;
34775;SDS011;20989;52.566;13.346;2023-05-10T05:13:35;3.97;;;3.38;;
34775;SDS011;20989;52.566;13.346;2023-05-10T05:16:36;3.67;;;3.30;;
34775;SDS011;20989;52.566;13.346;2023-05-10T05:19:36;8.07;;;3.72;;
34775;SDS011;20989;52.566;13.346;2023-05-10T05:22:37;3.72;;;3.33;;
34775;SDS011;20989;52.566;13.346;2023-05-10T05:25:38;8.60;;;3.50;;
34775;SDS011;20989;52.566;13.346;2023-05-10T05:28:38;12.50;;;3.40;;
34775;SDS011;20989;52.566;13.346;2023-05-10T05:31:39;5.55;;;3.17;;
34775;SDS011;20989;52.566;13.346;2023-05-10T05:34:40;4.75;;;3.00;;
34775;SDS011;20989;52.566;13.346;2023-05-10T05:37:40;10.10;;;3.95;;
34775;SDS011;20989;52.566;13.346;2023-05-10T05:40:41;3.35;;;3.05;;
34775;SDS011;20989;52.566;13.346;2023-05-10T05:43:41;3.53;;;2.95;;
34775;SDS011;20989;52.566;13.346;2023-05-10T05:46:42;5.55;;;2.60;;
34775;SDS011;20989;52.566;13.346;2023-05-10T05:49:43;3.35;;;2.75;;
34775;SDS011;20989;52.566;13.346;2023-05-10T05:52:45;4.68;;;2.97;;
34775;SDS011;20989;52.566;13.346;2023-05-10T05:55:56;5.68;;;3.25;;
34775;SDS011;20989;52.566;13.346;2023-05-10T05:58:57;3.03;;;2.72;;
34775;SDS011;20989;52.566;13.346;2023-05-10T06:01:58;4.90;;;2.97;;
34775;SDS011;20989;52.566;13.346;2023-05-10T06:04:59;3.97;;;2.80;;
34775;SDS011;20989;52.566;13.346;2023-05-10T06:08:00;3.25;;;2.70;;
34775;SDS011;20989;52.566;13.346;2023-05-10T06:11:01;3.38;;;3.08;;
34775;SDS011;20989;52.566;13.346;2023-05-10T06:14:03;4.55;;;2.50;;
34775;SDS011;20989;52.566;13.346;2023-05-10T06:17:04;4.03;;;2.80;;
34775;SDS011;20989;52.566;13.346;2023-05-10T06:20:06;2.85;;;2.53;;
34775;SDS011;20989;52.566;13.346;2023-05-10T06:23:08;4.63;;;2.38;;
34775;SDS011;20989;52.566;13.346;2023-05-10T06:26:08;3.10;;;2.80;;
34775;SDS011;20989;52.566;13.346;2023-05-10T06:29:09;2.72;;;2.53;;
34775;SDS011;20989;52.566;13.346;2023-05-10T06:32:10;4.03;;;2.92;;
34775;SDS011;20989;52.566;13.346;2023-05-10T06:35:11;3.25;;;2.45;;
34775;SDS011;20989;52.566;13.346;2023-05-10T06:38:11;3.22;;;2.30;;
34775;SDS011;20989;52.566;13.346;2023-05-10T06:41:12;3.28;;;2.97;;
34775;SDS011;20989;52.566;13.346;2023-05-10T06:44:13;2.70;;;2.40;;
34775;SDS011;20989;52.566;13.346;2023-05-10T06:47:13;3.03;;;2.70;;
34775;SDS011;20989;52.566;13.346;2023-05-10T06:50:14;2.85;;;2.45;;
34775;SDS011;20989;52.566;13.346;2023-05-10T06:53:15;2.60;;;2.40;;
34775;SDS011;20989;52.566;13.346;2023-05-10T06:56:16;2.15;;;1.95;;
34775;SDS011;20989;52.566;13.346;2023-05-10T06:59:16;2.85;;;2.65;;
34775;SDS011;20989;52.566;13.346;2023-05-10T07:02:19;5.88;;;2.75;;
34775;SDS011;20989;52.566;13.346;2023-05-10T07:05:19;2.42;;;2.20;;
34775;SDS011;20989;52.566;13.346;2023-05-10T07:08:20;2.55;;;2.35;;
34775;SDS011;20989;52.566;13.346;2023-05-10T07:11:21;3.22;;;2.20;;
34775;SDS011;20989;52.566;13.346;2023-05-10T07:14:21;2.15;;;2.00;;
34775;SDS011;20989;52.566;13.346;2023-05-10T07:17:22;2.75;;;2.03;;
34775;SDS011;20989;52.566;13.346;2023-05-10T07:20:23;3.60;;;2.13;;
34775;SDS011;20989;52.566;13.346;2023-05-10T07:23:23;2.15;;;1.75;;
34775;SDS011;20989;52.566;13.346;2023-05-10T07:26:24;2.17;;;2.03;;
34775;SDS011;20989;52.566;13.346;2023-05-10T07:29:25;2.25;;;2.03;;
34775;SDS011;20989;52.566;13.346;2023-05-10T07:32:26;2.22;;;2.00;;
34775;SDS011;20989;52.566;13.346;2023-05-10T07:35:27;2.00;;;1.90;;
34775;SDS011;20989;52.566;13.346;2023-05-10T07:38:27;2.50;;;2.30;;
34775;SDS011;20989;52.566;13.346;2023-05-10T07:41:28;2.10;;;2.00;;
34775;SDS011;20989;52.566;13.346;2023-05-10T07:44:29;2.50;;;2.30;;
34775;SDS011;20989;52.566;13.346;2023-05-10T07:47:29;3.45;;;1.70;;
34775;SDS011;20989;52.566;13.346;2023-05-10T07:50:30;2.33;;;2.13;;
34775;SDS011;20989;52.566;13.346;2023-05-10T07:53:31;2.08;;;1.98;;
34775;SDS011;20989;52.566;13.346;2023-05-10T08:00:22;2.20;;;2.00;;
34775;SDS011;20989;52.566;13.346;2023-05-10T08:07:20;2.50;;;2.30;;
34775;SDS011;20989;52.566;13.346;2023-05-10T08:10:20;2.45;;;2.25;;
34775;SDS011;20989;52.566;13.346;2023-05-10T08:13:21;1.92;;;1.80;;
34775;SDS011;20989;52.566;13.346;2023-05-10T08:16:22;2.13;;;2.03;;
34775;SDS011;20989;52.566;13.346;2023-05-10T08:19:22;2.90;;;2.00;;
34775;SDS011;20989;52.566;13.346;2023-05-10T08:22:23;2.15;;;1.95;;
34775;SDS011;20989;52.566;13.346;2023-05-10T08:25:24;2.22;;;2.13;;
34775;SDS011;20989;52.566;13.346;2023-05-10T08:28:25;1.80;;;1.70;;
34775;SDS011;20989;52.566;13.346;2023-05-10T08:31:27;3.30;;;1.70;;
34775;SDS011;20989;52.566;13.346;2023-05-10T08:34:27;2.00;;;1.88;;
34775;SDS011;20989;52.566;13.346;2023-05-10T08:37:29;2.25;;;2.05;;
34775;SDS011;20989;52.566;13.346;2023-05-10T08:40:30;2.33;;;2.13;;
34775;SDS011;20989;52.566;13.346;2023-05-10T08:43:32;1.90;;;1.80;;
34775;SDS011;20989;52.566;13.346;2023-05-10T08:46:33;1.80;;;1.70;;
34775;SDS011;20989;52.566;13.346;2023-05-10T08:49:38;1.85;;;1.75;;
34775;SDS011;20989;52.566;13.346;2023-05-10T08:52:40;1.70;;;1.60;;
34775;SDS011;20989;52.566;13.346;2023-05-10T08:55:41;1.70;;;1.60;;
34775;SDS011;20989;52.566;13.346;2023-05-10T08:58:43;1.73;;;1.63;;
34775;SDS011;20989;52.566;13.346;2023-05-10T09:01:44;1.85;;;1.75;;
34775;SDS011;20989;52.566;13.346;2023-05-10T09:04:48;2.00;;;1.90;;
34775;SDS011;20989;52.566;13.346;2023-05-10T09:07:49;1.88;;;1.77;;
34775;SDS011;20989;52.566;13.346;2023-05-10T09:10:49;1.95;;;1.85;;
34775;SDS011;20989;52.566;13.346;2023-05-10T09:13:50;2.10;;;2.00;;
34775;SDS011;20989;52.566;13.346;2023-05-10T09:16:52;1.80;;;1.70;;
34775;SDS011;20989;52.566;13.346;2023-05-10T09:20:01;2.03;;;1.88;;
34775;SDS011;20989;52.566;13.346;2023-05-10T09:23:04;1.98;;;1.88;;
34775;SDS011;20989;52.566;13.346;2023-05-10T09:26:05;2.10;;;2.00;;
34775;SDS011;20989;52.566;13.346;2023-05-10T09:29:06;1.48;;;1.38;;
34775;SDS011;20989;52.566;13.346;2023-05-10T09:32:08;2.13;;;1.98;;
34775;SDS011;20989;52.566;13.346;2023-05-10T09:35:19;1.98;;;1.80;;
34775;SDS011;20989;52.566;13.346;2023-05-10T09:38:21;1.60;;;1.50;;
34775;SDS011;20989;52.566;13.346;2023-05-10T09:41:22;2.00;;;1.90;;
34775;SDS011;20989;52.566;13.346;2023-05-10T09:44:25;1.70;;;1.60;;
34775;SDS011;20989;52.566;13.346;2023-05-10T09:47:26;1.70;;;1.60;;
34775;SDS011;20989;52.566;13.346;2023-05-10T09:50:27;1.60;;;1.50;;
34775;SDS011;20989;52.566;13.346;2023-05-10T09:53:28;1.80;;;1.70;;
34775;SDS011;20989;52.566;13.346;2023-05-10T09:56:32;1.60;;;1.50;;
34775;SDS011;20989;52.566;13.346;2023-05-10T09:59:35;1.70;;;1.60;;
34775;SDS011;20989;52.566;13.346;2023-05-10T10:02:36;1.83;;;1.73;;
34775;SDS011;20989;52.566;13.346;2023-05-10T10:05:36;8.43;;;1.80;;
34775;SDS011;20989;52.566;13.346;2023-05-10T10:08:41;10.13;;;2.10;;
34775;SDS011;20989;52.566;13.346;2023-05-10T10:11:42;2.75;;;1.63;;
34775;SDS011;20989;52.566;13.346;2023-05-10T10:14:43;2.67;;;2.13;;
34775;SDS011;20989;52.566;13.346;2023-05-10T10:17:46;1.55;;;1.45;;
34775;SDS011;20989;52.566;13.346;2023-05-10T10:20:49;1.58;;;1.40;;
34775;SDS011;20989;52.566;13.346;2023-05-10T10:23:50;2.35;;;1.50;;
34775;SDS011;20989;52.566;13.346;2023-05-10T10:26:52;2.42;;;1.60;;
34775;SDS011;20989;52.566;13.346;2023-05-10T10:33:06;2.55;;;1.40;;
34775;SDS011;20989;52.566;13.346;2023-05-10T10:36:50;3.45;;;1.30;;
34775;SDS011;20989;52.566;13.346;2023-05-10T10:39:50;1.45;;;1.35;;
34775;SDS011;20989;52.566;13.346;2023-05-10T10:42:51;5.78;;;2.22;;
34775;SDS011;20989;52.566;13.346;2023-05-10T10:49:14;4.10;;;1.73;;
34775;SDS011;20989;52.566;13.346;2023-05-10T10:52:27;1.55;;;1.45;;
34775;SDS011;20989;52.566;13.346;2023-05-10T10:55:34;2.10;;;1.58;;
34775;SDS011;20989;52.566;13.346;2023-05-10T10:58:35;2.70;;;1.77;;
34775;SDS011;20989;52.566;13.346;2023-05-10T11:01:36;2.58;;;1.48;;
34775;SDS011;20989;52.566;13.346;2023-05-10T11:04:44;1.85;;;1.45;;
34775;SDS011;20989;52.566;13.346;2023-05-10T11:07:51;1.98;;;1.77;;
34775;SDS011;20989;52.566;13.346;2023-05-10T11:14:02;2.45;;;1.55;;
34775;SDS011;20989;52.566;13.346;2023-05-10T11:17:26;1.92;;;1.65;;
34775;SDS011;20989;52.566;13.346;2023-05-10T11:20:28;3.95;;;1.45;;
34775;SDS011;20989;52.566;13.346;2023-05-10T11:26:40;4.33;;;1.60;;
34775;SDS011;20989;52.566;13.346;2023-05-10T11:29:41;2.70;;;2.10;;
34775;SDS011;20989;52.566;13.346;2023-05-10T11:32:43;4.32;;;1.60;;
34775;SDS011;20989;52.566;13.346;2023-05-10T11:35:45;3.35;;;1.60;;
34775;SDS011;20989;52.566;13.346;2023-05-10T11:38:46;5.53;;;2.00;;
34775;SDS011;20989;52.566;13.346;2023-05-10T11:41:48;2.70;;;1.75;;
34775;SDS011;20989;52.566;13.346;2023-05-10T11:44:50;2.80;;;1.40;;
34775;SDS011;20989;52.566;13.346;2023-05-10T11:47:50;2.78;;;1.73;;
34775;SDS011;20989;52.566;13.346;2023-05-10T11:50:51;1.70;;;1.60;;
34775;SDS011;20989;52.566;13.346;2023-05-10T11:53:56;4.38;;;1.40;;
34775;SDS011;20989;52.566;13.346;2023-05-10T11:56:57;6.15;;;1.45;;
34775;SDS011;20989;52.566;13.346;2023-05-10T11:59:57;3.53;;;1.85;;
34775;SDS011;20989;52.566;13.346;2023-05-10T12:02:59;6.80;;;1.55;;
34775;SDS011;20989;52.566;13.346;2023-05-10T12:06:01;19.92;;;2.40;;
34775;SDS011;20989;52.566;13.346;2023-05-10T12:09:05;3.58;;;1.33;;
34775;SDS011;20989;52.566;13.346;2023-05-10T12:12:08;4.03;;;1.67;;
34775;SDS011;20989;52.566;13.346;2023-05-10T12:15:26;6.63;;;1.77;;
34775;SDS011;20989;52.566;13.346;2023-05-10T12:18:28;4.88;;;1.52;;
34775;SDS011;20989;52.566;13.346;2023-05-10T12:21:29;4.78;;;1.40;;
34775;SDS011;20989;52.566;13.346;2023-05-10T12:24:34;1.60;;;1.50;;
34775;SDS011;20989;52.566;13.346;2023-05-10T12:27:35;2.22;;;1.15;;
34775;SDS011;20989;52.566;13.346;2023-05-10T12:30:36;4.82;;;1.52;;
34775;SDS011;20989;52.566;13.346;2023-05-10T12:33:38;5.70;;;1.40;;
34775;SDS011;20989;52.566;13.346;2023-05-10T12:36:43;7.15;;;1.52;;
34775;SDS011;20989;52.566;13.346;2023-05-10T12:39:44;5.35;;;1.55;;
34775;SDS011;20989;52.566;13.346;2023-05-10T12:42:46;11.55;;;1.83;;
34775;SDS011;20989;52.566;13.346;2023-05-10T12:45:47;4.07;;;1.85;;
34775;SDS011;20989;52.566;13.346;2023-05-10T12:48:48;4.63;;;1.90;;
34775;SDS011;20989;52.566;13.346;2023-05-10T12:51:54;2.78;;;1.77;;
34775;SDS011;20989;52.566;13.346;2023-05-10T12:54:55;6.00;;;1.90;;
34775;SDS011;20989;52.566;13.346;2023-05-10T12:57:57;1.63;;;1.50;;
34775;SDS011;20989;52.566;13.346;2023-05-10T13:01:00;1.27;;;1.17;;
34775;SDS011;20989;52.566;13.346;2023-05-10T13:04:02;1.50;;;1.40;;
34775;SDS011;20989;52.566;13.346;2023-05-10T13:07:03;2.00;;;1.45;;
34775;SDS011;20989;52.566;13.346;2023-05-10T13:10:05;1.92;;;1.60;;
34775;SDS011;20989;52.566;13.346;2023-05-10T13:13:07;1.40;;;1.30;;
34775;SDS011;20989;52.566;13.346;2023-05-10T13:16:08;1.77;;;1.48;;
34775;SDS011;20989;52.566;13.346;2023-05-10T13:19:10;1.75;;;1.60;;
34775;SDS011;20989;52.566;13.346;2023-05-10T13:22:11;3.53;;;1.77;;
34775;SDS011;20989;52.566;13.346;2023-05-10T13:25:12;7.07;;;2.33;;
34775;SDS011;20989;52.566;13.346;2023-05-10T13:28:13;1.60;;;1.50;;
34775;SDS011;20989;52.566;13.346;2023-05-10T13:31:14;4.93;;;1.70;;
34775;SDS011;20989;52.566;13.346;2023-05-10T13:34:15;1.60;;;1.50;;
34775;SDS011;20989;52.566;13.346;2023-05-10T13:37:16;9.07;;;1.58;;
34775;SDS011;20989;52.566;13.346;2023-05-10T13:40:17;4.32;;;1.40;;
34775;SDS011;20989;52.566;13.346;2023-05-10T13:43:18;3.63;;;1.55;;
34775;SDS011;20989;52.566;13.346;2023-05-10T13:46:19;2.83;;;1.52;;
34775;SDS011;20989;52.566;13.346;2023-05-10T13:49:19;6.10;;;1.35;;
34775;SDS011;20989;52.566;13.346;2023-05-10T13:52:21;4.15;;;1.60;;
34775;SDS011;20989;52.566;13.346;2023-05-10T13:55:22;12.43;;;2.70;;
34775;SDS011;20989;52.566;13.346;2023-05-10T13:58:23;18.63;;;4.05;;
34775;SDS011;20989;52.566;13.346;2023-05-10T14:01:24;20.17;;;4.18;;
34775;SDS011;20989;52.566;13.346;2023-05-10T14:04:24;10.10;;;3.45;;
34775;SDS011;20989;52.566;13.346;2023-05-10T14:07:25;8.18;;;3.40;;
34775;SDS011;20989;52.566;13.346;2023-05-10T14:10:26;8.20;;;3.85;;
34775;SDS011;20989;52.566;13.346;2023-05-10T14:13:27;11.00;;;3.20;;
34775;SDS011;20989;52.566;13.346;2023-05-10T14:16:28;10.80;;;3.50;;
34775;SDS011;20989;52.566;13.346;2023-05-10T14:19:28;12.00;;;3.42;;
34775;SDS011;20989;52.566;13.346;2023-05-10T14:22:32;9.13;;;2.92;;
34775;SDS011;20989;52.566;13.346;2023-05-10T14:25:33;5.47;;;3.20;;
34775;SDS011;20989;52.566;13.346;2023-05-10T14:28:34;4.75;;;3.35;;
34775;SDS011;20989;52.566;13.346;2023-05-10T14:31:35;10.43;;;3.03;;
34775;SDS011;20989;52.566;13.346;2023-05-10T14:34:36;8.32;;;3.15;;
34775;SDS011;20989;52.566;13.346;2023-05-10T14:37:36;5.90;;;2.78;;
34775;SDS011;20989;52.566;13.346;2023-05-10T14:40:37;4.35;;;2.70;;
34775;SDS011;20989;52.566;13.346;2023-05-10T14:43:38;4.43;;;3.03;;
34775;SDS011;20989;52.566;13.346;2023-05-10T14:46:38;4.45;;;2.47;;
34775;SDS011;20989;52.566;13.346;2023-05-10T14:49:40;4.03;;;2.70;;
34775;SDS011;20989;52.566;13.346;2023-05-10T14:52:41;3.95;;;3.00;;
34775;SDS011;20989;52.566;13.346;2023-05-10T14:55:41;5.10;;;2.20;;
34775;SDS011;20989;52.566;13.346;2023-05-10T14:58:42;3.50;;;2.65;;
34775;SDS011;20989;52.566;13.346;2023-05-10T15:01:43;3.20;;;2.50;;
34775;SDS011;20989;52.566;13.346;2023-05-10T15:04:44;2.33;;;2.13;;
34775;SDS011;20989;52.566;13.346;2023-05-10T15:07:44;6.22;;;2.92;;
34775;SDS011;20989;52.566;13.346;2023-05-10T15:10:45;2.53;;;2.33;;
34775;SDS011;20989;52.566;13.346;2023-05-10T15:13:48;2.92;;;1.90;;
34775;SDS011;20989;52.566;13.346;2023-05-10T15:16:48;4.57;;;2.35;;
34775;SDS011;20989;52.566;13.346;2023-05-10T15:19:49;5.85;;;2.40;;
34775;SDS011;20989;52.566;13.346;2023-05-10T15:22:50;7.30;;;2.63;;
34775;SDS011;20989;52.566;13.346;2023-05-10T15:25:50;3.30;;;2.10;;
34775;SDS011;20989;52.566;13.346;2023-05-10T15:28:55;3.72;;;2.10;;
34775;SDS011;20989;52.566;13.346;2023-05-10T15:31:56;2.78;;;2.20;;
34775;SDS011;20989;52.566;13.346;2023-05-10T15:34:56;3.00;;;2.33;;
34775;SDS011;20989;52.566;13.346;2023-05-10T15:37:58;2.15;;;1.92;;
34775;SDS011;20989;52.566;13.346;2023-05-10T15:40:58;3.92;;;2.08;;
34775;SDS011;20989;52.566;13.346;2023-05-10T15:43:59;2.05;;;1.90;;
34775;SDS011;20989;52.566;13.346;2023-05-10T15:47:00;2.28;;;1.85;;
34775;SDS011;20989;52.566;13.346;2023-05-10T15:50:02;5.78;;;2.47;;
34775;SDS011;20989;52.566;13.346;2023-05-10T15:53:03;2.10;;;1.90;;
34775;SDS011;20989;52.566;13.346;2023-05-10T15:56:04;2.72;;;2.53;;
34775;SDS011;20989;52.566;13.346;2023-05-10T15:59:05;2.10;;;1.92;;
34775;SDS011;20989;52.566;13.346;2023-05-10T16:02:11;3.13;;;1.77;;
34775;SDS011;20989;52.566;13.346;2023-05-10T16:05:12;2.42;;;2.15;;
34775;SDS011;20989;52.566;13.346;2023-05-10T16:08:13;2.97;;;2.13;;
34775;SDS011;20989;52.566;13.346;2023-05-10T16:11:14;1.98;;;1.88;;
34775;SDS011;20989;52.566;13.346;2023-05-10T16:14:16;2.08;;;1.70;;
34775;SDS011;20989;52.566;13.346;2023-05-10T16:17:16;2.22;;;2.08;;
34775;SDS011;20989;52.566;13.346;2023-05-10T16:20:19;2.58;;;2.20;;
34775;SDS011;20989;52.566;13.346;2023-05-10T16:23:19;2.22;;;2.03;;
34775;SDS011;20989;52.566;13.346;2023-05-10T16:26:20;1.73;;;1.63;;
34775;SDS011;20989;52.566;13.346;2023-05-10T16:29:21;1.70;;;1.60;;
34775;SDS011;20989;52.566;13.346;2023-05-10T16:32:22;2.17;;;2.08;;
34775;SDS011;20989;52.566;13.346;2023-05-10T16:35:22;1.65;;;1.55;;
34775;SDS011;20989;52.566;13.346;2023-05-10T16:38:23;2.47;;;2.28;;
34775;SDS011;20989;52.566;13.346;2023-05-10T16:41:24;2.20;;;2.00;;
34775;SDS011;20989;52.566;13.346;2023-05-10T16:44:25;2.30;;;2.08;;
34775;SDS011;20989;52.566;13.346;2023-05-10T16:47:26;2.17;;;1.98;;
34775;SDS011;20989;52.566;13.346;2023-05-10T16:50:26;3.05;;;2.22;;
34775;SDS011;20989;52.566;13.346;2023-05-10T16:53:27;2.60;;;1.80;;
34775;SDS011;20989;52.566;13.346;2023-05-10T16:56:29;4.40;;;2.17;;
34775;SDS011;20989;52.566;13.346;2023-05-10T16:59:30;7.78;;;3.45;;
34775;SDS011;20989;52.566;13.346;2023-05-10T17:02:30;10.45;;;3.13;;
34775;SDS011;20989;52.566;13.346;2023-05-10T17:05:31;6.95;;;3.75;;
34775;SDS011;20989;52.566;13.346;2023-05-10T17:08:32;4.28;;;3.72;;
34775;SDS011;20989;52.566;13.346;2023-05-10T17:11:32;5.85;;;4.00;;
34775;SDS011;20989;52.566;13.346;2023-05-10T17:14:33;6.32;;;4.57;;
34775;SDS011;20989;52.566;13.346;2023-05-10T17:17:34;6.32;;;4.13;;
34775;SDS011;20989;52.566;13.346;2023-05-10T17:20:35;3.30;;;2.95;;
34775;SDS011;20989;52.566;13.346;2023-05-10T17:23:36;4.43;;;3.38;;
34775;SDS011;20989;52.566;13.346;2023-05-10T17:26:36;5.30;;;3.17;;
34775;SDS011;20989;52.566;13.346;2023-05-10T17:29:37;3.88;;;3.58;;
34775;SDS011;20989;52.566;13.346;2023-05-10T17:32:38;5.22;;;2.90;;
34775;SDS011;20989;52.566;13.346;2023-05-10T17:35:38;6.20;;;3.03;;
34775;SDS011;20989;52.566;13.346;2023-05-10T17:38:39;3.92;;;3.53;;
34775;SDS011;20989;52.566;13.346;2023-05-10T17:41:40;7.85;;;3.17;;
34775;SDS011;20989;52.566;13.346;2023-05-10T17:44:41;8.98;;;3.42;;
34775;SDS011;20989;52.566;13.346;2023-05-10T17:47:41;14.13;;;3.28;;
34775;SDS011;20989;52.566;13.346;2023-05-10T17:50:42;15.00;;;2.95;;
34775;SDS011;20989;52.566;13.346;2023-05-10T17:53:43;6.60;;;3.00;;
34775;SDS011;20989;52.566;13.346;2023-05-10T17:56:44;7.53;;;3.17;;
34775;SDS011;20989;52.566;13.346;2023-05-10T17:59:45;9.63;;;2.92;;
34775;SDS011;20989;52.566;13.346;2023-05-10T18:02:46;16.25;;;3.35;;
34775;SDS011;20989;52.566;13.346;2023-05-10T18:05:47;6.13;;;3.15;;
34775;SDS011;20989;52.566;13.346;2023-05-10T18:08:48;9.32;;;2.80;;
34775;SDS011;20989;52.566;13.346;2023-05-10T18:11:48;8.85;;;3.20;;
34775;SDS011;20989;52.566;13.346;2023-05-10T18:14:50;13.63;;;2.83;;
34775;SDS011;20989;52.566;13.346;2023-05-10T18:17:50;7.55;;;2.45;;
34775;SDS011;20989;52.566;13.346;2023-05-10T18:20:51;9.75;;;2.63;;
34775;SDS011;20989;52.566;13.346;2023-05-10T18:23:55;6.28;;;2.95;;
34775;SDS011;20989;52.566;13.346;2023-05-10T18:26:56;11.30;;;2.97;;
34775;SDS011;20989;52.566;13.346;2023-05-10T18:29:57;7.80;;;3.10;;
34775;SDS011;20989;52.566;13.346;2023-05-10T18:32:58;6.15;;;2.67;;